Time;durP1;ratioP1;P1;durP2;ratioP2;P2;SDS_P1;SDS_P2;PMS_P1;PMS_P2;Temp;Humidity;BMP_temperature;BMP_pressure;BME280_temperature;BME280_humidity;BME280_pressure;Samples;Min_cycle;Max_cycle;Signal;HPM_P1;HPM_P2
2023/10/21 00:00:19;;;;;;;;;;;;;;;7.17;32.02;100986.44;5096557;28;19927;-64
2023/10/21 00:02:44;;;;;;;;;;;;;;;7.17;31.89;100994.44;5095828;28;20014;-64
2023/10/21 00:05:10;;;;;;;;;;;;;;;7.26;32.16;101007.84;5101783;28;19916;-64
2023/10/21 00:07:35;;;;;;;;;;;;;;;7.26;32.01;100998.03;5095641;28;19923;-64
2023/10/21 00:10:00;;;;;;;;;;;;;;;7.21;32.54;100994.16;5095394;28;19955;-64
2023/10/21 00:12:26;;;;;;;;;;;;;;;7.22;32.48;100995.81;5093576;28;20416;-63
2023/10/21 00:14:51;;;;;;;;;;;;;;;7.25;32.21;101009.69;5095459;28;19916;-63
2023/10/21 00:17:16;;;;;;;;;;;;;;;7.26;32.29;100997.16;5107687;28;19946;-63
2023/10/21 00:19:41;;;;;;;;;;;;;;;7.27;32.59;100993.50;5117810;27;20006;-63
2023/10/21 00:22:07;;;;;;;;;;;;;;;7.27;32.22;101004.19;5094792;28;19969;-63
2023/10/21 00:24:32;;;;;;;;;;;;;;;7.21;31.93;101010.19;5095090;28;20371;-63
2023/10/21 00:26:57;;;;;;;;;;;;;;;7.14;33.09;100996.59;5094980;28;19916;-64
2023/10/21 00:29:23;;;;;;;;;;;;;;;7.26;32.45;101007.84;5100240;28;19931;-63
2023/10/21 00:31:48;;;;;;;;;;;;;;;7.22;32.56;100993.97;5094300;28;19919;-63
2023/10/21 00:34:13;;;;;;;;;;;;;;;7.21;32.22;101007.50;5098894;28;19915;-63
2023/10/21 00:36:38;;;;;;;;;;;;;;;7.08;32.87;100995.41;5105898;28;19958;-63
2023/10/21 00:39:04;;;;;;;;;;;;;;;7.14;33.28;100999.28;5094588;28;19922;-63
2023/10/21 00:41:29;;;;;;;;;;;;;;;7.13;33.11;100986.91;5095212;28;20456;-63
2023/10/21 00:43:54;;;;;;;;;;;;;;;7.15;32.72;100980.41;5095025;28;19916;-63
2023/10/21 00:46:20;;;;;;;;;;;;;;;7.19;33.07;100991.63;5095763;28;20379;-64
2023/10/21 00:48:45;;;;;;;;;;;;;;;7.18;33.08;100998.78;5096498;28;19916;-63
2023/10/21 00:51:11;;;;;;;;;;;;;;;7.18;32.79;100998.78;5087943;28;20438;-63
2023/10/21 00:53:36;;;;;;;;;;;;;;;7.22;33.10;100990.47;5075674;28;19923;-62
2023/10/21 00:56:02;;;;;;;;;;;;;;;7.18;33.32;100984.59;5103583;28;20329;-65
2023/10/21 00:58:30;;;;;;;;;;;;;;;7.20;32.99;100990.63;5095590;28;20011;-64
2023/10/21 01:00:56;;;;;;;;;;;;;;;7.22;33.06;100999.31;5095357;28;20380;-64
2023/10/21 01:03:22;;;;;;;;;;;;;;;7.16;33.54;100991.94;5092303;28;19960;-64
2023/10/21 01:05:48;;;;;;;;;;;;;;;7.14;33.50;100986.75;5098657;28;19983;-64
2023/10/21 01:08:13;;;;;;;;;;;;;;;7.18;33.28;100981.94;5095467;28;19947;-64
2023/10/21 01:10:38;;;;;;;;;;;;;;;7.14;33.00;100977.91;5098123;28;19924;-64
2023/10/21 01:13:03;;;;;;;;;;;;;;;7.15;33.64;100984.91;5075507;28;19931;-63
2023/10/21 01:15:29;;;;;;;;;;;;;;;7.18;33.20;100988.09;5092740;28;20376;-63
2023/10/21 01:17:54;;;;;;;;;;;;;;;7.21;33.08;100984.28;5092063;28;20432;-62
2023/10/21 01:20:20;;;;;;;;;;;;;;;7.25;33.05;100972.28;5095028;28;19927;-63
2023/10/21 01:22:45;;;;;;;;;;;;;;;7.29;32.97;100951.44;5093947;28;19916;-63
2023/10/21 01:25:11;;;;;;;;;;;;;;;7.33;32.99;100952.78;5093808;28;20046;-63
2023/10/21 01:27:36;;;;;;;;;;;;;;;7.35;33.31;100943.63;5094007;28;20333;-64
2023/10/21 01:30:01;;;;;;;;;;;;;;;7.36;33.04;100945.28;5094614;28;19916;-63
2023/10/21 01:32:27;;;;;;;;;;;;;;;7.32;33.55;100933.25;5093208;28;19917;-63
2023/10/21 01:34:52;;;;;;;;;;;;;;;7.42;32.87;100956.34;5101944;28;19969;-63
2023/10/21 01:37:18;;;;;;;;;;;;;;;7.44;33.20;100957.00;5076048;28;20368;-63
2023/10/21 01:39:44;;;;;;;;;;;;;;;7.57;32.98;100971.56;5094651;28;19916;-63
2023/10/21 01:42:09;;;;;;;;;;;;;;;7.69;33.03;100969.47;5092721;28;20457;-63
2023/10/21 01:44:35;;;;;;;;;;;;;;;7.80;33.22;100981.69;5092039;28;20415;-63
2023/10/21 01:47:00;;;;;;;;;;;;;;;7.91;32.93;100964.50;5094304;28;19969;-63
2023/10/21 01:49:25;;;;;;;;;;;;;;;8.01;32.31;100964.38;5095490;28;19924;-62
2023/10/21 01:51:50;;;;;;;;;;;;;;;8.10;32.32;100966.06;5094531;28;19918;-62
2023/10/21 01:54:16;;;;;;;;;;;;;;;8.17;32.51;100956.34;5092171;28;19916;-62
2023/10/21 01:56:41;;;;;;;;;;;;;;;8.17;32.17;100945.63;5103865;28;19924;-63
2023/10/21 01:59:08;;;;;;;;;;;;;;;8.19;32.46;100935.63;5100719;28;19916;-64
2023/10/21 02:01:33;;;;;;;;;;;;;;;8.23;32.00;100945.00;5100151;28;19927;-63
2023/10/21 02:03:58;;;;;;;;;;;;;;;8.29;31.98;100938.13;5098897;28;19920;-64
2023/10/21 02:06:26;;;;;;;;;;;;;;;8.22;32.10;100934.44;5102092;28;20404;-63
2023/10/21 02:08:53;;;;;;;;;;;;;;;8.24;32.12;100922.56;5111183;28;19962;-63
2023/10/21 02:11:22;;;;;;;;;;;;;;;8.18;32.47;100927.78;5092889;28;19931;-62
2023/10/21 02:13:47;;;;;;;;;;;;;;;8.08;32.31;100920.75;5093799;28;20005;-62
2023/10/21 02:16:12;;;;;;;;;;;;;;;7.99;32.54;100912.88;5092730;28;19920;-63
2023/10/21 02:18:37;;;;;;;;;;;;;;;7.98;32.67;100913.88;5093445;28;19916;-63
2023/10/21 02:21:05;;;;;;;;;;;;;;;7.96;32.72;100906.00;5093691;28;19920;-63
2023/10/21 02:23:31;;;;;;;;;;;;;;;7.85;32.88;100899.13;5093768;28;20265;-64
2023/10/21 02:26:03;;;;;;;;;;;;;;;7.77;32.81;100906.31;5092636;28;19919;-62
2023/10/21 02:28:28;;;;;;;;;;;;;;;7.77;32.50;100901.81;5092318;28;19920;-63
2023/10/21 02:30:54;;;;;;;;;;;;;;;7.75;32.66;100918.00;5093008;28;20398;-63
2023/10/21 02:33:19;;;;;;;;;;;;;;;7.78;32.51;100919.50;5092877;28;19916;-63
2023/10/21 02:35:45;;;;;;;;;;;;;;;7.75;32.99;100920.69;5092934;28;20361;-63
2023/10/21 02:38:11;;;;;;;;;;;;;;;7.70;32.95;100916.81;5092996;28;19916;-63
2023/10/21 02:40:40;;;;;;;;;;;;;;;7.67;32.76;100925.16;5092971;28;19920;-64
2023/10/21 02:43:05;;;;;;;;;;;;;;;7.60;32.45;100919.66;5093456;28;19937;-63
2023/10/21 02:45:31;;;;;;;;;;;;;;;7.62;33.41;100914.97;5100615;28;19921;-63
2023/10/21 02:47:56;;;;;;;;;;;;;;;7.58;33.13;100924.31;5109852;28;20072;-63
2023/10/21 02:50:21;;;;;;;;;;;;;;;7.55;33.04;100922.78;5092571;28;19920;-63
2023/10/21 02:52:47;;;;;;;;;;;;;;;7.51;33.72;100937.50;5093678;28;19920;-63
2023/10/21 02:55:12;;;;;;;;;;;;;;;7.50;33.39;100924.28;5097194;28;19912;-63
2023/10/21 02:57:37;;;;;;;;;;;;;;;7.59;33.55;100917.13;5096516;28;19942;-63
2023/10/21 03:00:05;;;;;;;;;;;;;;;7.71;33.07;100927.38;5093106;28;20368;-63
2023/10/21 03:02:30;;;;;;;;;;;;;;;7.83;33.58;100927.88;5090199;28;19947;-63
2023/10/21 03:04:55;;;;;;;;;;;;;;;7.86;33.02;100922.22;5092165;28;19955;-63
2023/10/21 03:07:21;;;;;;;;;;;;;;;7.86;33.33;100921.38;5092924;28;19923;-63
2023/10/21 03:09:46;;;;;;;;;;;;;;;7.84;33.13;100916.19;5091847;28;19923;-63
2023/10/21 03:12:11;;;;;;;;;;;;;;;7.83;33.06;100914.50;5093021;28;19958;-63
2023/10/21 03:14:38;;;;;;;;;;;;;;;7.89;33.00;100921.91;5092005;28;19966;-63
2023/10/21 03:17:03;;;;;;;;;;;;;;;7.91;33.00;100911.88;5095280;28;19927;-63
2023/10/21 03:19:29;;;;;;;;;;;;;;;7.94;33.25;100908.84;5090991;28;19919;-64
2023/10/21 03:21:56;;;;;;;;;;;;;;;8.03;32.97;100927.59;5113959;28;20249;-64
2023/10/21 03:24:22;;;;;;;;;;;;;;;8.08;33.22;100919.91;5113993;28;19964;-63
2023/10/21 03:26:47;;;;;;;;;;;;;;;8.08;32.91;100903.88;5093337;28;19916;-64
2023/10/21 03:29:12;;;;;;;;;;;;;;;8.13;32.95;100910.38;5093252;28;19919;-64
2023/10/21 03:31:37;;;;;;;;;;;;;;;8.18;32.74;100909.88;5091960;28;19927;-63
2023/10/21 03:34:03;;;;;;;;;;;;;;;8.22;32.68;100886.28;5092966;28;20383;-63
2023/10/21 03:36:29;;;;;;;;;;;;;;;8.22;32.37;100880.94;5093192;28;20078;-63
2023/10/21 03:38:54;;;;;;;;;;;;;;;8.16;32.83;100898.50;5092549;28;20007;-64
2023/10/21 03:41:19;;;;;;;;;;;;;;;8.07;32.52;100889.63;5091109;28;20007;-64
2023/10/21 03:43:44;;;;;;;;;;;;;;;8.12;32.87;100899.84;5091979;28;19916;-64
2023/10/21 03:46:14;;;;;;;;;;;;;;;8.02;32.58;100883.94;5091342;28;19939;-64
2023/10/21 03:48:40;;;;;;;;;;;;;;;7.92;32.71;100902.00;5093013;28;20010;-64
2023/10/21 03:51:11;;;;;;;;;;;;;;;7.84;32.74;100899.31;5091191;28;20031;-64
2023/10/21 03:53:36;;;;;;;;;;;;;;;7.83;33.20;100914.50;5092916;28;19966;-64
2023/10/21 03:56:02;;;;;;;;;;;;;;;7.84;32.88;100915.38;5100445;28;19939;-64
2023/10/21 03:58:38;;;;;;;;;;;;;;;7.88;32.89;100914.03;5091666;28;19934;-64
2023/10/21 04:01:04;;;;;;;;;;;;;;;7.86;32.94;100919.53;5092083;28;19920;-63
2023/10/21 04:03:30;;;;;;;;;;;;;;;7.95;33.05;100890.97;5092938;28;19958;-63
2023/10/21 04:05:55;;;;;;;;;;;;;;;7.92;32.89;100897.47;5092834;28;19913;-64
2023/10/21 04:08:21;;;;;;;;;;;;;;;7.95;32.88;100894.47;5092121;28;20002;-64
2023/10/21 04:10:48;;;;;;;;;;;;;;;8.01;32.64;100894.81;5090964;28;19980;-63
2023/10/21 04:13:14;;;;;;;;;;;;;;;8.05;32.69;100898.84;5106959;28;20412;-64
2023/10/21 04:15:39;;;;;;;;;;;;;;;8.05;32.80;100897.00;5116549;28;19912;-64
2023/10/21 04:18:04;;;;;;;;;;;;;;;8.10;32.61;100883.13;5082315;28;19912;-63
2023/10/21 04:20:31;;;;;;;;;;;;;;;7.98;32.76;100887.13;5096136;28;19966;-64
2023/10/21 04:22:57;;;;;;;;;;;;;;;8.02;32.55;100875.09;5096455;28;19916;-63
2023/10/21 04:25:22;;;;;;;;;;;;;;;8.06;32.79;100882.63;5107419;28;19913;-63
2023/10/21 04:27:47;;;;;;;;;;;;;;;8.11;32.72;100876.75;5096272;28;19912;-64
2023/10/21 04:30:13;;;;;;;;;;;;;;;8.12;32.42;100878.44;5096339;28;19919;-63
2023/10/21 04:32:38;;;;;;;;;;;;;;;8.07;32.91;100886.94;5106210;28;20292;-63
2023/10/21 04:35:06;;;;;;;;;;;;;;;8.09;32.64;100884.94;5095237;28;20323;-63
2023/10/21 04:37:31;;;;;;;;;;;;;;;8.08;32.81;100887.81;5094879;28;19916;-63
2023/10/21 04:39:57;;;;;;;;;;;;;;;8.07;32.64;100873.59;5092903;28;19927;-63
2023/10/21 04:42:25;;;;;;;;;;;;;;;8.10;32.49;100859.88;5098632;28;19955;-63
2023/10/21 04:44:51;;;;;;;;;;;;;;;8.06;32.53;100866.56;5094161;28;20369;-63
2023/10/21 04:47:16;;;;;;;;;;;;;;;8.07;32.87;100867.41;5095962;28;19912;-63
2023/10/21 04:49:45;;;;;;;;;;;;;;;8.16;32.87;100862.91;5094009;28;19949;-63
2023/10/21 04:52:11;;;;;;;;;;;;;;;8.22;32.65;100862.22;5090170;28;19923;-63
2023/10/21 04:54:36;;;;;;;;;;;;;;;8.24;32.70;100854.84;5094506;28;19916;-64
2023/10/21 04:57:01;;;;;;;;;;;;;;;8.26;32.61;100859.03;5103201;28;20005;-63
2023/10/21 04:59:26;;;;;;;;;;;;;;;8.19;32.69;100859.88;5096190;28;20361;-63
2023/10/21 05:01:51;;;;;;;;;;;;;;;8.27;32.52;100859.88;5095618;28;20280;-62
2023/10/21 05:04:17;;;;;;;;;;;;;;;8.26;32.33;100872.41;5096631;28;20010;-63
2023/10/21 05:06:42;;;;;;;;;;;;;;;8.27;32.80;100868.72;5095415;28;19920;-63
2023/10/21 05:09:07;;;;;;;;;;;;;;;8.31;32.48;100869.22;5092876;28;19920;-63
2023/10/21 05:11:32;;;;;;;;;;;;;;;8.31;32.18;100877.25;5094983;28;19927;-63
2023/10/21 05:13:58;;;;;;;;;;;;;;;8.39;32.51;100884.44;5095190;28;19912;-63
2023/10/21 05:16:23;;;;;;;;;;;;;;;8.42;32.26;100873.44;5098505;28;19920;-64
2023/10/21 05:18:48;;;;;;;;;;;;;;;8.41;32.11;100877.91;5102888;28;19926;-62
2023/10/21 05:21:14;;;;;;;;;;;;;;;8.41;32.49;100872.56;5092817;28;19919;-62
2023/10/21 05:23:39;;;;;;;;;;;;;;;8.39;32.70;100863.84;5093559;28;19920;-61
2023/10/21 05:26:04;;;;;;;;;;;;;;;8.38;32.32;100864.88;5077786;28;19923;-62
2023/10/21 05:28:31;;;;;;;;;;;;;;;8.40;32.33;100859.38;5094054;28;20008;-62
2023/10/21 05:30:57;;;;;;;;;;;;;;;8.29;32.57;100860.53;5095303;28;20293;-63
2023/10/21 05:33:27;;;;;;;;;;;;;;;8.36;32.47;100858.88;5093502;28;20276;-62
2023/10/21 05:35:56;;;;;;;;;;;;;;;8.41;32.37;100863.69;5107781;28;19922;-64
2023/10/21 05:38:21;;;;;;;;;;;;;;;8.42;32.18;100847.50;5094430;28;19985;-63
2023/10/21 05:40:47;;;;;;;;;;;;;;;8.44;32.30;100842.81;5094709;28;20367;-63
2023/10/21 05:43:12;;;;;;;;;;;;;;;8.36;32.49;100829.44;5076231;28;20356;-63
2023/10/21 05:45:37;;;;;;;;;;;;;;;8.38;32.14;100850.66;5094297;28;20415;-63
2023/10/21 05:48:03;;;;;;;;;;;;;;;8.41;32.60;100844.97;5094560;28;19960;-64
2023/10/21 05:50:28;;;;;;;;;;;;;;;8.42;32.26;100844.81;5095567;28;19915;-62
2023/10/21 05:52:53;;;;;;;;;;;;;;;8.44;32.25;100850.84;5096213;28;19935;-63
2023/10/21 05:55:19;;;;;;;;;;;;;;;8.43;32.42;100854.53;5099077;28;19920;-64
2023/10/21 05:57:44;;;;;;;;;;;;;;;8.45;32.20;100852.53;5094973;28;20352;-64
2023/10/21 06:00:09;;;;;;;;;;;;;;;8.48;32.51;100856.69;5094390;28;19958;-64
2023/10/21 06:02:35;;;;;;;;;;;;;;;8.38;32.80;100848.81;5093679;28;20268;-64
2023/10/21 06:05:00;;;;;;;;;;;;;;;8.45;32.54;100852.53;5093660;28;19963;-64
2023/10/21 06:07:25;;;;;;;;;;;;;;;8.51;32.69;100853.69;5097601;28;19916;-64
2023/10/21 06:09:51;;;;;;;;;;;;;;;8.48;32.79;100845.97;5093272;28;19958;-64
2023/10/21 06:12:17;;;;;;;;;;;;;;;8.51;32.45;100856.34;5094169;28;19919;-64
2023/10/21 06:14:42;;;;;;;;;;;;;;;8.55;32.63;100852.34;5094325;28;20449;-64
2023/10/21 06:17:07;;;;;;;;;;;;;;;8.59;32.57;100853.66;5104263;28;20125;-63
2023/10/21 06:19:32;;;;;;;;;;;;;;;8.52;32.41;100860.69;5114442;28;19958;-62
2023/10/21 06:21:58;;;;;;;;;;;;;;;8.50;32.50;100855.50;5094976;28;20368;-63
2023/10/21 06:24:24;;;;;;;;;;;;;;;8.60;32.66;100865.19;5106754;28;20268;-63
2023/10/21 06:26:49;;;;;;;;;;;;;;;8.62;32.43;100868.56;5111363;28;19920;-61
2023/10/21 06:29:14;;;;;;;;;;;;;;;8.64;32.78;100870.03;5093603;28;19916;-63
2023/10/21 06:31:39;;;;;;;;;;;;;;;8.68;32.68;100871.38;5093181;28;19923;-63
2023/10/21 06:34:05;;;;;;;;;;;;;;;8.71;32.63;100864.81;5093823;28;19916;-64
2023/10/21 06:36:31;;;;;;;;;;;;;;;8.77;32.76;100869.50;5092880;28;20387;-64
2023/10/21 06:38:57;;;;;;;;;;;;;;;8.81;32.53;100862.81;5094154;28;19912;-64
2023/10/21 06:41:23;;;;;;;;;;;;;;;8.81;32.75;100859.28;5092362;28;19998;-64
2023/10/21 06:43:48;;;;;;;;;;;;;;;8.85;32.66;100848.06;5094116;28;19940;-63
2023/10/21 06:46:15;;;;;;;;;;;;;;;8.87;32.71;100850.56;5093959;28;19958;-64
2023/10/21 06:48:40;;;;;;;;;;;;;;;8.88;32.78;100854.91;5093935;28;19944;-64
2023/10/21 06:51:05;;;;;;;;;;;;;;;8.86;32.84;100855.09;5092411;28;20038;-64
2023/10/21 06:53:30;;;;;;;;;;;;;;;8.89;32.59;100860.06;5099949;28;19916;-64
2023/10/21 06:55:56;;;;;;;;;;;;;;;8.96;33.09;100856.72;5117482;27;19915;-64
2023/10/21 06:58:21;;;;;;;;;;;;;;;9.05;32.18;100858.38;5093421;28;19919;-64
2023/10/21 07:00:46;;;;;;;;;;;;;;;9.04;32.83;100854.84;5093504;28;19923;-64
2023/10/21 07:03:12;;;;;;;;;;;;;;;9.08;32.71;100853.50;5093507;28;20000;-64
2023/10/21 07:05:37;;;;;;;;;;;;;;;9.11;32.78;100863.03;5093872;28;19958;-64
2023/10/21 07:08:04;;;;;;;;;;;;;;;9.19;32.52;100852.25;5094312;28;19913;-63
2023/10/21 07:10:30;;;;;;;;;;;;;;;9.25;32.83;100864.16;5095769;28;19923;-63
2023/10/21 07:12:56;;;;;;;;;;;;;;;9.28;32.50;100851.19;5106854;28;20375;-63
2023/10/21 07:15:23;;;;;;;;;;;;;;;9.41;32.45;100874.75;5094610;28;19920;-63
2023/10/21 07:17:48;;;;;;;;;;;;;;;9.48;32.46;100862.31;5091098;28;19918;-63
2023/10/21 07:20:14;;;;;;;;;;;;;;;9.54;32.24;100868.00;5102749;28;19920;-63
2023/10/21 07:22:41;;;;;;;;;;;;;;;9.64;32.25;100871.31;5093497;28;19923;-64
2023/10/21 07:25:07;;;;;;;;;;;;;;;9.78;32.22;100865.16;5079143;28;19915;-64
2023/10/21 07:27:32;;;;;;;;;;;;;;;9.91;31.92;100859.19;5096803;28;19916;-65
2023/10/21 07:29:57;;;;;;;;;;;;;;;9.98;31.63;100870.06;5093580;28;19913;-65
2023/10/21 07:32:23;;;;;;;;;;;;;;;9.99;31.72;100869.88;5093280;28;20049;-63
2023/10/21 07:34:49;;;;;;;;;;;;;;;9.99;31.80;100869.03;5092065;28;19916;-63
2023/10/21 07:37:14;;;;;;;;;;;;;;;9.99;31.65;100861.81;5086943;28;19912;-64
2023/10/21 07:39:40;;;;;;;;;;;;;;;10.00;31.54;100866.16;5092952;28;19916;-65
2023/10/21 07:42:05;;;;;;;;;;;;;;;10.00;31.70;100868.84;5095216;28;19917;-65
2023/10/21 07:44:30;;;;;;;;;;;;;;;10.02;31.68;100858.75;5094532;28;19962;-65
2023/10/21 07:46:56;;;;;;;;;;;;;;;10.00;31.59;100855.44;5095477;28;19974;-65
2023/10/21 07:49:22;;;;;;;;;;;;;;;9.95;32.02;100847.06;5096487;28;19919;-65
2023/10/21 07:51:48;;;;;;;;;;;;;;;9.89;31.73;100824.50;5096669;28;19913;-65
2023/10/21 07:54:13;;;;;;;;;;;;;;;9.94;31.73;100831.19;5100377;28;20010;-64
2023/10/21 07:56:39;;;;;;;;;;;;;;;9.82;31.88;100820.84;5105969;28;20014;-66
2023/10/21 07:59:05;;;;;;;;;;;;;;;9.80;32.11;100816.69;5096994;28;19916;-67
2023/10/21 08:01:30;;;;;;;;;;;;;;;9.81;31.85;100802.28;5096444;28;19963;-68
2023/10/21 08:03:56;;;;;;;;;;;;;;;9.72;31.97;100798.81;5096206;28;19916;-67
2023/10/21 08:06:21;;;;;;;;;;;;;;;9.71;32.18;100794.47;5096638;28;21751;-68
2023/10/21 08:08:46;;;;;;;;;;;;;;;9.74;31.87;100786.06;5096457;28;20292;-69
2023/10/21 08:11:12;;;;;;;;;;;;;;;9.76;31.92;100789.41;5097639;28;20269;-69
2023/10/21 08:13:37;;;;;;;;;;;;;;;9.69;32.03;100797.34;5098557;28;19999;-69
2023/10/21 08:16:06;;;;;;;;;;;;;;;9.57;32.24;100787.22;5069087;28;19917;-69
2023/10/21 08:18:31;;;;;;;;;;;;;;;9.60;32.02;100776.13;5095669;28;20395;-68
2023/10/21 08:20:56;;;;;;;;;;;;;;;9.64;32.39;100761.34;5092604;28;19920;-69
2023/10/21 08:23:21;;;;;;;;;;;;;;;9.64;32.02;100777.44;5084503;28;19924;-70
2023/10/21 08:25:47;;;;;;;;;;;;;;;9.66;32.32;100765.50;5087752;28;21737;-69
2023/10/21 08:28:12;;;;;;;;;;;;;;;9.67;32.16;100759.13;5093188;28;20319;-70
2023/10/21 08:30:40;;;;;;;;;;;;;;;9.70;31.98;100768.66;5081248;28;20006;-69
2023/10/21 08:33:06;;;;;;;;;;;;;;;9.77;31.97;100758.03;5093280;28;20006;-69
2023/10/21 08:35:33;;;;;;;;;;;;;;;9.82;32.05;100753.78;5097976;28;19916;-68
2023/10/21 08:37:58;;;;;;;;;;;;;;;9.90;31.97;100739.50;5089440;28;20395;-69
2023/10/21 08:40:24;;;;;;;;;;;;;;;9.88;31.65;100733.47;5092078;28;20042;-70
2023/10/21 08:42:50;;;;;;;;;;;;;;;9.89;31.97;100733.28;5086108;28;20375;-70
2023/10/21 08:45:16;;;;;;;;;;;;;;;9.88;32.09;100750.41;5095656;28;20014;-70
2023/10/21 08:47:44;;;;;;;;;;;;;;;9.92;32.13;100736.59;5095217;28;20002;-69
2023/10/21 08:50:09;;;;;;;;;;;;;;;9.98;32.04;100743.94;5091130;28;19926;-69
2023/10/21 08:52:36;;;;;;;;;;;;;;;10.00;31.54;100737.38;5095418;28;20010;-69
2023/10/21 08:55:01;;;;;;;;;;;;;;;10.00;31.92;100732.00;5102346;28;19999;-70
2023/10/21 08:57:27;;;;;;;;;;;;;;;10.01;31.89;100735.50;5087699;28;20457;-70
2023/10/21 08:59:52;;;;;;;;;;;;;;;10.02;31.82;100735.34;5095172;28;20296;-69
2023/10/21 09:02:17;;;;;;;;;;;;;;;10.05;31.62;100734.16;5094782;28;20471;-70
2023/10/21 09:04:43;;;;;;;;;;;;;;;10.06;31.84;100722.38;5095281;28;19960;-69
2023/10/21 09:07:08;;;;;;;;;;;;;;;10.07;31.68;100729.44;5095611;28;19976;-69
2023/10/21 09:09:37;;;;;;;;;;;;;;;10.12;31.85;100727.00;5107216;28;20347;-68
2023/10/21 09:12:10;;;;;;;;;;;;;;;10.09;31.68;100732.75;5095375;28;19924;-68
2023/10/21 09:15:02;;;;;;;;;;;;;;;10.13;31.57;100726.00;5060898;28;19912;-67
2023/10/21 09:17:38;;;;;;;;;;;;;;;10.17;31.93;100715.72;5093888;28;19990;-68
2023/10/21 09:20:11;;;;;;;;;;;;;;;10.23;31.68;100734.63;5089449;28;20270;-69
2023/10/21 09:22:37;;;;;;;;;;;;;;;10.26;31.56;100730.72;5094859;28;19912;-68
2023/10/21 09:25:15;;;;;;;;;;;;;;;10.31;31.20;100740.94;5107435;28;19923;-68
2023/10/21 09:27:46;;;;;;;;;;;;;;;10.26;31.68;100750.34;5094484;28;20405;-67
2023/10/21 09:30:15;;;;;;;;;;;;;;;10.26;32.07;100750.34;5094707;28;20319;-69
2023/10/21 09:32:41;;;;;;;;;;;;;;;10.31;32.39;100751.66;5094875;28;19938;-67
2023/10/21 09:35:14;;;;;;;;;;;;;;;10.34;32.16;100745.94;5104975;28;19923;-68
2023/10/21 09:37:41;;;;;;;;;;;;;;;10.42;32.08;100748.53;5095483;28;19922;-68
2023/10/21 09:40:07;;;;;;;;;;;;;;;10.57;32.31;100749.38;5098565;28;20350;-69
2023/10/21 09:42:37;;;;;;;;;;;;;;;10.72;32.78;100743.16;5075026;28;19916;-68
2023/10/21 09:45:03;;;;;;;;;;;;;;;11.03;33.02;100729.44;5088043;28;20417;-69
2023/10/21 09:47:29;;;;;;;;;;;;;;;11.37;32.42;100723.38;5076146;28;19966;-67
2023/10/21 09:49:56;;;;;;;;;;;;;;;11.58;31.64;100706.38;5094565;28;19920;-69
2023/10/21 09:52:27;;;;;;;;;;;;;;;11.63;31.78;100701.25;5093937;28;19923;-68
2023/10/21 09:54:55;;;;;;;;;;;;;;;11.82;31.19;100693.53;5092757;28;19916;-67
2023/10/21 09:57:21;;;;;;;;;;;;;;;12.01;31.25;100687.47;5077550;28;19927;-68
2023/10/21 09:59:47;;;;;;;;;;;;;;;12.16;30.81;100689.22;5090928;28;19951;-68
2023/10/21 10:02:13;;;;;;;;;;;;;;;12.29;30.66;100675.00;5090142;28;19916;-67
2023/10/21 10:04:38;;;;;;;;;;;;;;;12.38;30.11;100676.50;5074852;28;19923;-70
2023/10/21 10:07:07;;;;;;;;;;;;;;;12.40;30.53;100677.13;5084428;28;20002;-70
2023/10/21 10:09:36;;;;;;;;;;;;;;;12.44;30.42;100661.41;5089144;28;19916;-71
2023/10/21 10:12:16;;;;;;;;;;;;;;;12.46;30.20;100662.88;5086959;28;20014;-69
2023/10/21 10:14:41;;;;;;;;;;;;;;;12.48;29.84;100670.72;5087196;28;20428;-69
2023/10/21 10:17:06;;;;;;;;;;;;;;;12.59;30.05;100659.38;5087299;28;20004;-71
2023/10/21 10:19:39;;;;;;;;;;;;;;;12.65;29.45;100655.03;5089364;28;19920;-68
2023/10/21 10:22:40;;;;;;;;;;;;;;;12.62;29.83;100650.91;5093348;28;19916;-72
2023/10/21 10:25:10;;;;;;;;;;;;;;;12.64;29.78;100642.63;5010980;28;20088;-68
2023/10/21 10:27:38;;;;;;;;;;;;;;;12.55;29.56;100631.19;5078564;28;19918;-68
2023/10/21 10:30:08;;;;;;;;;;;;;;;12.56;29.72;100638.25;5092797;28;19923;-68
2023/10/21 10:32:42;;;;;;;;;;;;;;;12.45;29.61;100630.75;5074833;28;19989;-69
2023/10/21 10:35:07;;;;;;;;;;;;;;;12.23;29.88;100638.94;5104276;28;20535;-69
2023/10/21 10:37:34;;;;;;;;;;;;;;;12.24;29.96;100632.53;5092308;28;19916;-69
2023/10/21 10:40:05;;;;;;;;;;;;;;;12.03;30.14;100641.53;5114416;28;19964;-68
2023/10/21 10:42:31;;;;;;;;;;;;;;;11.91;30.20;100646.66;5114610;28;19920;-69
2023/10/21 10:44:56;;;;;;;;;;;;;;;11.89;30.17;100662.13;5096228;28;20397;-69
2023/10/21 10:47:22;;;;;;;;;;;;;;;11.77;31.37;100647.56;5101236;28;19912;-69
2023/10/21 10:49:57;;;;;;;;;;;;;;;11.68;32.28;100643.34;5076174;28;19920;-69
2023/10/21 10:52:27;;;;;;;;;;;;;;;11.60;32.10;100647.03;5093111;28;19912;-69
2023/10/21 10:54:53;;;;;;;;;;;;;;;11.41;32.50;100646.69;5078537;28;19916;-69
2023/10/21 10:57:20;;;;;;;;;;;;;;;11.33;33.01;100648.66;5100486;28;19912;-69
2023/10/21 10:59:46;;;;;;;;;;;;;;;11.23;33.25;100641.75;5093699;28;19912;-69
2023/10/21 11:02:14;;;;;;;;;;;;;;;11.14;34.22;100624.09;5093547;28;20006;-69
2023/10/21 11:04:44;;;;;;;;;;;;;;;11.16;35.10;100631.97;5093784;28;19916;-69
2023/10/21 11:07:10;;;;;;;;;;;;;;;11.00;35.56;100644.66;5093491;28;19920;-69
2023/10/21 11:09:36;;;;;;;;;;;;;;;10.89;36.63;100631.75;5101803;28;19919;-69
2023/10/21 11:12:01;;;;;;;;;;;;;;;10.81;37.17;100643.44;5099114;28;20358;-70
2023/10/21 11:14:27;;;;;;;;;;;;;;;10.79;38.77;100650.00;5093624;28;20003;-70
2023/10/21 11:16:53;;;;;;;;;;;;;;;10.61;39.12;100648.59;5101818;28;19946;-70
2023/10/21 11:19:18;;;;;;;;;;;;;;;10.52;39.88;100652.41;5086031;28;19991;-70
2023/10/21 11:21:48;;;;;;;;;;;;;;;10.43;40.73;100651.69;5079470;28;19965;-71
2023/10/21 11:24:14;;;;;;;;;;;;;;;10.36;41.21;100652.63;5096299;28;20357;-70
2023/10/21 11:26:40;;;;;;;;;;;;;;;10.35;42.02;100653.66;5112451;28;20419;-70
2023/10/21 11:29:06;;;;;;;;;;;;;;;10.42;40.38;100659.94;5116065;28;20049;-70
2023/10/21 11:31:31;;;;;;;;;;;;;;;10.39;41.37;100653.09;5093059;28;20015;-70
2023/10/21 11:34:06;;;;;;;;;;;;;;;10.33;42.41;100661.06;5112091;28;19912;-70
2023/10/21 11:36:31;;;;;;;;;;;;;;;10.35;42.74;100654.47;5097605;28;20015;-71
2023/10/21 11:38:56;;;;;;;;;;;;;;;10.29;42.67;100652.53;5097749;28;20328;-70
2023/10/21 11:41:22;;;;;;;;;;;;;;;10.32;41.64;100640.59;5103599;28;19923;-70
2023/10/21 11:43:51;;;;;;;;;;;;;;;10.31;42.73;100645.16;5118218;28;19911;-70
2023/10/21 11:46:16;;;;;;;;;;;;;;;10.26;42.39;100637.59;5114353;28;19912;-70
2023/10/21 11:48:42;;;;;;;;;;;;;;;10.28;42.70;100630.19;5097687;28;19919;-70
2023/10/21 11:51:07;;;;;;;;;;;;;;;10.23;43.34;100634.47;5097575;28;19912;-70
2023/10/21 11:53:32;;;;;;;;;;;;;;;10.31;42.67;100638.94;5109674;28;19961;-70
2023/10/21 11:56:51;;;;;;;;;;;;;;;10.31;43.72;100623.69;5098924;28;20428;-70
2023/10/21 12:13:08;;;;;;;;;;;;;;;10.01;43.84;100617.47;5095147;28;20403;-70
2023/10/21 12:23:47;;;;;;;;;;;;;;;10.01;43.93;100610.25;5096401;28;19985;-71
2023/10/21 12:31:41;;;;;;;;;;;;;;;10.05;44.09;100608.88;5075423;28;19920;-70
2023/10/21 12:37:20;;;;;;;;;;;;;;;9.90;45.93;100608.06;5102247;28;19923;-70
2023/10/21 12:42:34;;;;;;;;;;;;;;;9.81;46.09;100615.34;5080806;28;19915;-71
2023/10/21 12:45:01;;;;;;;;;;;;;;;9.77;46.22;100597.13;5115077;28;19951;-70
2023/10/21 12:47:27;;;;;;;;;;;;;;;9.78;46.60;100598.78;5101391;28;19947;-71
2023/10/21 12:49:55;;;;;;;;;;;;;;;9.69;46.71;100598.03;5094833;28;19958;-70
2023/10/21 12:52:21;;;;;;;;;;;;;;;9.63;46.48;100604.16;5077852;28;19924;-71
2023/10/21 12:54:47;;;;;;;;;;;;;;;9.69;47.19;100603.41;5116164;28;19912;-71
2023/10/21 12:57:12;;;;;;;;;;;;;;;9.75;47.18;100593.78;5104115;28;19919;-71
2023/10/21 12:59:38;;;;;;;;;;;;;;;9.67;47.27;100600.91;5094692;28;20029;-71
2023/10/21 13:02:07;;;;;;;;;;;;;;;9.58;47.50;100606.53;5087478;28;19935;-71
2023/10/21 13:04:34;;;;;;;;;;;;;;;9.59;47.18;100602.84;5074515;28;19913;-70
2023/10/21 13:07:00;;;;;;;;;;;;;;;9.66;48.02;100587.72;5056656;28;19923;-70
2023/10/21 13:09:28;;;;;;;;;;;;;;;9.63;47.74;100596.94;5103775;28;19946;-70
2023/10/21 13:11:54;;;;;;;;;;;;;;;9.67;47.10;100586.66;5038979;28;1769867;-70